createdAt,value
2018-01-25T00:00:25.205Z,98913.06
2018-01-25T00:02:54.784Z,98914.28
2018-01-25T00:05:24.665Z,98921.45
2018-01-25T00:07:54.551Z,98912.48
2018-01-25T00:10:24.482Z,98913.89
2018-01-25T00:12:54.322Z,98913.75
2018-01-25T00:15:24.124Z,98913.37
2018-01-25T00:17:53.968Z,98914.88
2018-01-25T00:20:23.802Z,98917.95
2018-01-25T00:22:53.636Z,98921.70
2018-01-25T00:25:23.457Z,98913.28
2018-01-25T00:27:53.292Z,98914.05
2018-01-25T00:30:23.121Z,98912.42
2018-01-25T00:32:53.472Z,98918.67
2018-01-25T00:35:23.936Z,98911.59
2018-01-25T00:37:53.917Z,98924.34
2018-01-25T00:40:24.027Z,98925.09
2018-01-25T00:42:53.724Z,98925.74
2018-01-25T00:45:23.680Z,98925.53
2018-01-25T00:47:53.489Z,98924.14
2018-01-25T00:50:23.346Z,98926.46
2018-01-25T00:52:53.311Z,98930.84
2018-01-25T00:55:23.130Z,98938.08
2018-01-25T00:57:52.959Z,98949.22
2018-01-25T01:00:22.848Z,98947.73
2018-01-25T01:02:52.746Z,98950.88
2018-01-25T01:05:22.586Z,98950.69
2018-01-25T01:07:52.401Z,98953.89
2018-01-25T01:10:22.260Z,98952.95
2018-01-25T01:12:52.095Z,98953.27
2018-01-25T01:15:21.932Z,98944.33
2018-01-25T01:17:51.767Z,98946.20
2018-01-25T01:20:21.583Z,98944.66
2018-01-25T01:22:51.409Z,98945.75
2018-01-25T01:25:21.239Z,98951.58
2018-01-25T01:27:51.186Z,98946.56
2018-01-25T01:30:21.024Z,98953.25
2018-01-25T01:32:50.827Z,98964.67
2018-01-25T01:35:20.744Z,98964.53
2018-01-25T01:37:50.625Z,98966.20
2018-01-25T01:40:20.470Z,98970.47
2018-01-25T01:42:50.279Z,98966.07
2018-01-25T01:45:20.090Z,98966.39
2018-01-25T01:47:49.921Z,98967.27
2018-01-25T01:50:19.732Z,98975.55
2018-01-25T01:52:49.544Z,98975.23
2018-01-25T01:55:19.431Z,98975.40
2018-01-25T01:57:49.625Z,98971.86
2018-01-25T02:00:19.485Z,98985.05
2018-01-25T02:02:49.076Z,98981.88
2018-01-25T02:05:18.921Z,98984.91
2018-01-25T02:07:48.752Z,98982.85
2018-01-25T02:10:18.583Z,98983.63
2018-01-25T02:12:48.402Z,98987.05
2018-01-25T02:15:18.324Z,98997.73
2018-01-25T02:17:48.148Z,98989.33
2018-01-25T02:20:17.639Z,98993.14
2018-01-25T02:22:47.696Z,98987.57
2018-01-25T02:25:17.519Z,98990.88
2018-01-25T02:27:47.392Z,98997.91
2018-01-25T02:30:17.361Z,98999.10
2018-01-25T02:32:47.259Z,99002.33
2018-01-25T02:35:17.077Z,99002.02
2018-01-25T02:37:46.889Z,99006.68
2018-01-25T02:40:16.757Z,99009.76
2018-01-25T02:42:46.605Z,99008.92
2018-01-25T02:45:16.432Z,99008.89
2018-01-25T02:47:46.015Z,99010.96
2018-01-25T02:50:15.512Z,99010.76
2018-01-25T02:52:45.361Z,99008.76
2018-01-25T02:55:15.682Z,99005.16
2018-01-25T02:57:45.653Z,99005.69
2018-01-25T03:00:15.488Z,99004.56
2018-01-25T03:02:45.320Z,98992.95
2018-01-25T03:05:15.213Z,98997.77
2018-01-25T03:07:45.022Z,99001.18
2018-01-25T03:10:14.913Z,99005.23
2018-01-25T03:12:44.754Z,99008.64
2018-01-25T03:15:14.587Z,99006.08
2018-01-25T03:17:44.481Z,99004.12
2018-01-25T03:20:14.316Z,99017.20
2018-01-25T03:22:44.197Z,99018.94
2018-01-25T03:25:14.031Z,99014.81
2018-01-25T03:27:43.867Z,99017.01
2018-01-25T03:30:13.696Z,99009.41
2018-01-25T03:32:43.553Z,99013.94
2018-01-25T03:35:13.430Z,99017.60
2018-01-25T03:37:43.264Z,99015.05
2018-01-25T03:40:12.887Z,99020.67
2018-01-25T03:42:42.748Z,99020.66
2018-01-25T03:45:14.962Z,99025.44
2018-01-25T03:47:44.976Z,99027.98
2018-01-25T03:50:14.605Z,99027.22
2018-01-25T03:52:44.430Z,99031.03
2018-01-25T03:55:14.295Z,99028.61
2018-01-25T03:57:44.185Z,99033.66
2018-01-25T04:00:13.805Z,99032.81
2018-01-25T04:02:43.901Z,99039.92
2018-01-25T04:05:13.714Z,99032.63
2018-01-25T04:07:43.752Z,99040.98
2018-01-25T04:10:13.559Z,99038.82
2018-01-25T04:12:43.401Z,99044.12
2018-01-25T04:15:13.222Z,99048.75
2018-01-25T04:17:43.115Z,99042.30
2018-01-25T04:20:12.992Z,99042.94
2018-01-25T04:22:42.613Z,99039.81
2018-01-25T04:25:12.460Z,99037.84
2018-01-25T04:27:42.317Z,99036.17
2018-01-25T04:30:12.122Z,99025.42
2018-01-25T04:32:42.073Z,99028.70
2018-01-25T04:35:11.936Z,99020.95
2018-01-25T04:37:41.778Z,99037.76
2018-01-25T04:40:11.638Z,99031.56
2018-01-25T04:42:41.393Z,99032.98
2018-01-25T04:45:12.872Z,99026.52
2018-01-25T04:47:42.682Z,99023.73
2018-01-25T04:50:12.503Z,99023.88
2018-01-25T04:52:42.339Z,99019.83
2018-01-25T04:55:12.173Z,99011.23
2018-01-25T04:57:41.841Z,99019.03
2018-01-25T05:00:11.672Z,99019.16
2018-01-25T05:02:41.598Z,99017.82
2018-01-25T05:05:11.405Z,99019.42
2018-01-25T05:07:41.450Z,99016.70
2018-01-25T05:10:11.258Z,99026.85
2018-01-25T05:12:41.234Z,99030.39
2018-01-25T05:15:11.152Z,99029.28
2018-01-25T05:17:42.678Z,99025.16
2018-01-25T05:20:12.317Z,99025.37
2018-01-25T05:22:42.056Z,99029.44
2018-01-25T05:25:12.028Z,99027.70
2018-01-25T05:27:42.029Z,99026.69
2018-01-25T05:30:11.885Z,99022.55
2018-01-25T05:32:41.847Z,99032.31
2018-01-25T05:35:11.819Z,99027.78
2018-01-25T05:37:41.736Z,99032.66
2018-01-25T05:40:11.675Z,99027.17
2018-01-25T05:42:41.585Z,99035.70
2018-01-25T05:45:11.474Z,99040.23
2018-01-25T05:47:41.404Z,99036.83
2018-01-25T05:50:12.075Z,99038.47
2018-01-25T05:52:42.039Z,99039.86
2018-01-25T05:55:11.908Z,99042.23
2018-01-25T05:57:41.763Z,99044.39
2018-01-25T06:00:11.705Z,99047.20
2018-01-25T06:02:41.556Z,99042.72
2018-01-25T06:05:11.721Z,99044.69
2018-01-25T06:07:41.739Z,99040.36
2018-01-25T06:10:11.602Z,99043.41
2018-01-25T06:12:41.562Z,99041.25
2018-01-25T06:15:12.535Z,99032.11
2018-01-25T06:17:42.401Z,99046.09
2018-01-25T06:20:12.452Z,99042.92
2018-01-25T06:22:42.538Z,99038.34
2018-01-25T06:25:12.995Z,99036.80
2018-01-25T06:27:42.947Z,99036.12
2018-01-25T06:30:12.921Z,99039.66
2018-01-25T06:32:42.952Z,99038.02
2018-01-25T06:35:12.860Z,99039.40
2018-01-25T06:37:42.696Z,99041.85
2018-01-25T06:40:12.627Z,99039.87
2018-01-25T06:42:43.065Z,99043.16
2018-01-25T06:45:13.401Z,99038.91
2018-01-25T06:47:47.500Z,99033.74
2018-01-25T06:50:20.259Z,99039.30
2018-01-25T06:52:50.474Z,99040.02
2018-01-25T06:55:20.696Z,99044.73
2018-01-25T06:57:50.619Z,99045.38
2018-01-25T07:00:20.948Z,99047.86
2018-01-25T07:02:50.825Z,99051.92
2018-01-25T07:05:20.795Z,99064.52
2018-01-25T07:07:50.710Z,99062.23
2018-01-25T07:10:20.728Z,99062.20
2018-01-25T07:12:50.689Z,99061.02
2018-01-25T07:15:20.551Z,99058.58
2018-01-25T07:17:50.512Z,99066.14
2018-01-25T07:20:20.411Z,99057.84
2018-01-25T07:22:50.286Z,99065.55
2018-01-25T07:25:20.188Z,99067.12
2018-01-25T07:27:50.081Z,99067.83
2018-01-25T07:30:20.206Z,99065.30
2018-01-25T07:32:50.113Z,99067.30
2018-01-25T07:35:20.034Z,99065.10
2018-01-25T07:37:49.839Z,99063.31
2018-01-25T07:40:19.754Z,99065.97
2018-01-25T07:42:50.022Z,99070.08
2018-01-25T07:45:19.971Z,99070.12
2018-01-25T07:47:49.928Z,99060.98
2018-01-25T07:50:19.885Z,99074.27
2018-01-25T07:52:49.813Z,99066.75
2018-01-25T07:55:19.699Z,99062.64
2018-01-25T07:57:53.429Z,99065.05
2018-01-25T08:00:23.252Z,99059.45
2018-01-25T08:02:54.037Z,99052.59
2018-01-25T08:05:24.050Z,99051.87
2018-01-25T08:07:53.928Z,99054.42
2018-01-25T08:10:23.780Z,99057.22
2018-01-25T08:12:53.564Z,99048.98
2018-01-25T08:15:23.423Z,99050.31
2018-01-25T08:17:53.338Z,99045.66
2018-01-25T08:20:23.508Z,99046.76
2018-01-25T08:22:53.053Z,99042.42
2018-01-25T08:25:22.965Z,99036.75
2018-01-25T08:27:53.231Z,99029.83
2018-01-25T08:30:23.176Z,99034.58
2018-01-25T08:32:52.809Z,99032.38
2018-01-25T08:35:22.652Z,99031.86
2018-01-25T08:37:55.005Z,99037.14
2018-01-25T08:40:24.877Z,99035.75
2018-01-25T08:42:54.715Z,99035.02
2018-01-25T08:45:24.412Z,99032.67
2018-01-25T08:47:54.250Z,99025.76
2018-01-25T08:50:24.129Z,99029.90
2018-01-25T08:52:53.982Z,99028.60
2018-01-25T08:55:23.800Z,99029.17
2018-01-25T08:57:53.635Z,99027.45
2018-01-25T09:00:23.739Z,99021.19
2018-01-25T09:02:53.767Z,99020.06
2018-01-25T09:05:23.627Z,99019.54
2018-01-25T09:07:53.477Z,99011.72
2018-01-25T09:10:23.336Z,99015.42
2018-01-25T09:12:53.179Z,99003.34
2018-01-25T09:15:22.996Z,99008.93
2018-01-25T09:17:52.931Z,99008.75
2018-01-25T09:20:23.005Z,99010.33
2018-01-25T09:22:53.133Z,99001.61
2018-01-25T09:25:22.999Z,99014.58
2018-01-25T09:27:53.863Z,99013.38
2018-01-25T09:30:23.663Z,99005.50
2018-01-25T09:32:53.548Z,99005.74
2018-01-25T09:35:23.700Z,99008.52
2018-01-25T09:37:53.807Z,99009.45
2018-01-25T09:40:23.711Z,99002.00
2018-01-25T09:42:53.698Z,99003.84
2018-01-25T09:45:23.566Z,98995.52
2018-01-25T09:47:53.314Z,98989.41
2018-01-25T09:50:23.311Z,98982.59
2018-01-25T09:52:53.208Z,98980.37
2018-01-25T09:55:23.483Z,98988.14
2018-01-25T09:57:54.228Z,98979.27
2018-01-25T10:00:24.140Z,98970.81
2018-01-25T10:02:54.244Z,98970.40
2018-01-25T10:05:24.165Z,98969.16
2018-01-25T10:07:53.871Z,98966.98
2018-01-25T10:10:23.836Z,98959.55
2018-01-25T10:12:53.669Z,98957.89
2018-01-25T10:15:23.472Z,98951.77
2018-01-25T10:17:53.316Z,98940.09
2018-01-25T10:20:23.353Z,98940.36
2018-01-25T10:22:53.156Z,98940.63
2018-01-25T10:25:22.972Z,98922.42
2018-01-25T10:27:52.831Z,98928.23
2018-01-25T10:30:22.665Z,98921.81
2018-01-25T10:32:52.526Z,98917.95
2018-01-25T10:35:22.419Z,98912.88
2018-01-25T10:37:52.245Z,98909.13
2018-01-25T10:40:22.091Z,98906.54
2018-01-25T10:42:51.618Z,98896.37
2018-01-25T10:45:21.352Z,98892.28
2018-01-25T10:47:50.979Z,98890.41
2018-01-25T10:50:20.497Z,98880.59
2018-01-25T10:52:51.138Z,98874.25
2018-01-25T10:55:20.659Z,98870.98
2018-01-25T10:57:54.931Z,98873.03
2018-01-25T11:00:24.268Z,98864.50
2018-01-25T11:02:53.833Z,98859.50
2018-01-25T11:05:23.354Z,98860.93
2018-01-25T11:07:52.879Z,98854.45
2018-01-25T11:10:22.451Z,98838.92
2018-01-25T11:12:52.309Z,98844.03
2018-01-25T11:15:21.851Z,98838.54
2018-01-25T11:17:51.428Z,98832.52
2018-01-25T11:20:20.953Z,98833.30
2018-01-25T11:22:50.611Z,98824.06
2018-01-25T11:25:20.116Z,98821.07
2018-01-25T11:27:50.536Z,98816.95
2018-01-25T11:30:20.094Z,98819.14
2018-01-25T11:32:49.725Z,98808.84
2018-01-25T11:35:19.265Z,98805.88
2018-01-25T11:37:48.802Z,98803.09
2018-01-25T11:40:18.384Z,98802.53
2018-01-25T11:42:47.963Z,98808.06
2018-01-25T11:45:17.218Z,98803.13
2018-01-25T11:47:46.837Z,98798.89
2018-01-25T11:50:16.399Z,98784.86
2018-01-25T11:52:45.901Z,98791.36
2018-01-25T11:55:15.438Z,98785.00
2018-01-25T11:57:44.992Z,98781.93
2018-01-25T12:00:14.503Z,98777.84
2018-01-25T12:02:44.457Z,98775.73
2018-01-25T12:05:14.265Z,98771.26
2018-01-25T12:07:44.078Z,98765.31
2018-01-25T12:10:13.878Z,98768.61
2018-01-25T12:12:43.755Z,98763.98
2018-01-25T12:15:13.588Z,98750.45
2018-01-25T12:17:44.239Z,98755.95
2018-01-25T12:20:14.067Z,98752.34
2018-01-25T12:22:43.914Z,98750.95
2018-01-25T12:25:13.701Z,98741.13
2018-01-25T12:27:43.496Z,98746.61
2018-01-25T12:30:13.441Z,98743.20
2018-01-25T12:32:43.335Z,98739.79
2018-01-25T12:35:13.639Z,98740.26
2018-01-25T12:37:44.631Z,98729.73
2018-01-25T12:40:16.753Z,98729.33
2018-01-25T12:42:52.289Z,98726.19
2018-01-25T12:45:22.272Z,98719.36
2018-01-25T12:47:52.399Z,98720.04
2018-01-25T12:50:26.760Z,98712.95
2018-01-25T12:52:56.881Z,98721.80
2018-01-25T12:55:26.994Z,98713.64
2018-01-25T12:57:59.478Z,98714.18
2018-01-25T13:00:30.191Z,98705.38
2018-01-25T13:03:01.137Z,98698.22
2018-01-25T13:05:32.464Z,98696.91
2018-01-25T13:08:02.462Z,98693.84
2018-01-25T13:10:32.477Z,98694.21
2018-01-25T13:13:02.367Z,98696.02
2018-01-25T13:15:33.024Z,98687.39
2018-01-25T13:18:03.190Z,98685.75
2018-01-25T13:20:34.216Z,98686.36
2018-01-25T13:23:04.314Z,98684.41
2018-01-25T13:25:34.374Z,98681.17
2018-01-25T13:28:05.373Z,98674.86
2018-01-25T13:30:35.255Z,98669.02
2018-01-25T13:33:10.189Z,98678.05
2018-01-25T13:35:42.815Z,98676.09
2018-01-25T13:38:22.838Z,98674.97
2018-01-25T13:40:58.736Z,98669.80
2018-01-25T13:43:29.580Z,98674.70
2018-01-25T13:45:59.378Z,98672.69
2018-01-25T13:48:29.961Z,98671.66
2018-01-25T13:51:00.885Z,98672.75
2018-01-25T13:53:34.685Z,98672.75
2018-01-25T13:56:05.775Z,98676.22
2018-01-25T13:58:38.849Z,98674.69
2018-01-25T14:01:10.630Z,98671.82
2018-01-25T14:03:41.425Z,98660.13
2018-01-25T14:06:11.419Z,98659.92
2018-01-25T14:08:43.463Z,98664.09
2018-01-25T14:11:13.748Z,98662.90
2018-01-25T14:13:51.898Z,98665.88
2018-01-25T14:16:25.413Z,98662.23
2018-01-25T14:21:37.457Z,98662.02
2018-01-25T14:26:43.124Z,98656.54
2018-01-25T14:29:17.568Z,98652.75
2018-01-25T14:31:52.115Z,98653.41
2018-01-25T14:34:23.314Z,98646.05
2018-01-25T14:37:03.129Z,98655.53
2018-01-25T14:39:37.198Z,98643.14
2018-01-25T14:42:11.009Z,98646.41
2018-01-25T14:44:42.447Z,98647.55
2018-01-25T14:49:55.555Z,98644.34
2018-01-25T14:52:27.145Z,98648.45
2018-01-25T14:54:58.646Z,98646.80
2018-01-25T14:57:28.631Z,98645.88
2018-01-25T14:59:59.071Z,98647.50
2018-01-25T15:05:08.401Z,98649.05
2018-01-25T15:07:51.016Z,98648.04
2018-01-25T15:10:31.071Z,98656.34
2018-01-25T15:15:43.060Z,98652.30
2018-01-25T15:18:19.690Z,98652.52
2018-01-25T15:20:55.001Z,98657.47
2018-01-25T15:23:29.606Z,98650.91
2018-01-25T15:26:08.690Z,98649.89
2018-01-25T15:28:39.482Z,98644.56
2018-01-25T15:31:10.285Z,98643.00
2018-01-25T15:33:44.200Z,98640.81
2018-01-25T15:41:37.784Z,98648.53
2018-01-25T15:44:14.648Z,98647.09
2018-01-25T15:46:48.087Z,98627.82
2018-01-25T15:49:20.706Z,98643.39
2018-01-25T15:51:52.880Z,98645.36
2018-01-25T15:57:00.957Z,98643.61
2018-01-25T15:59:33.648Z,98639.30
2018-01-25T16:02:11.893Z,98635.30
2018-01-25T16:04:41.892Z,98632.09
2018-01-25T16:07:12.461Z,98629.84
2018-01-25T16:09:47.086Z,98635.11
2018-01-25T16:12:18.665Z,98640.15
2018-01-25T16:14:48.621Z,98641.55
2018-01-25T16:17:18.588Z,98640.03
2018-01-25T16:19:50.442Z,98636.03
2018-01-25T16:24:56.398Z,98640.39
2018-01-25T16:27:27.166Z,98633.19
2018-01-25T16:29:57.148Z,98625.44
2018-01-25T16:32:28.912Z,98624.70
2018-01-25T16:34:59.097Z,98626.72
2018-01-25T16:37:29.338Z,98629.88
2018-01-25T16:40:00.082Z,98631.03
2018-01-25T16:42:30.123Z,98623.68
2018-01-25T16:45:00.433Z,98632.58
2018-01-25T16:47:31.266Z,98633.43
2018-01-25T16:52:42.281Z,98628.36
2018-01-25T16:57:51.522Z,98624.84
2018-01-25T17:00:21.740Z,98616.98
2018-01-25T17:02:56.128Z,98626.35
2018-01-25T17:05:26.397Z,98624.38
2018-01-25T17:10:36.095Z,98625.23
2018-01-25T17:13:10.924Z,98621.71
2018-01-25T17:15:42.248Z,98626.21
2018-01-25T17:18:13.536Z,98633.18
2018-01-25T17:20:43.468Z,98639.48
2018-01-25T17:23:13.351Z,98625.59
2018-01-25T17:25:44.140Z,98620.38
2018-01-25T17:28:14.228Z,98622.73
2018-01-25T17:33:18.897Z,98620.20
2018-01-25T17:35:50.961Z,98611.39
2018-01-25T17:38:21.129Z,98608.95
2018-01-25T17:40:54.826Z,98600.55
2018-01-25T17:43:24.879Z,98595.02
2018-01-25T17:46:01.762Z,98594.31
2018-01-25T17:48:31.603Z,98602.20
2018-01-25T17:51:01.562Z,98605.38
2018-01-25T17:53:32.215Z,98603.22
2018-01-25T17:56:02.499Z,98602.30
2018-01-25T17:58:33.550Z,98603.95
2018-01-25T18:06:13.898Z,98603.95
2018-01-25T18:08:49.230Z,98602.02
2018-01-25T18:11:19.509Z,98602.20
2018-01-25T18:13:49.663Z,98599.64
2018-01-25T18:16:19.608Z,98598.53
2018-01-25T18:18:49.782Z,98586.61
2018-01-25T18:21:21.346Z,98581.20
2018-01-25T18:23:51.595Z,98586.64
2018-01-25T18:26:22.271Z,98582.62
2018-01-25T18:28:52.414Z,98577.70
2018-01-25T18:31:22.509Z,98586.20
2018-01-25T18:33:52.125Z,98585.91
2018-01-25T18:36:22.319Z,98588.95
2018-01-25T18:38:52.931Z,98592.25
2018-01-25T18:41:22.972Z,98590.52
2018-01-25T18:43:52.594Z,98586.61
2018-01-25T18:46:22.390Z,98586.42
2018-01-25T18:48:52.199Z,98588.98
2018-01-25T18:51:22.017Z,98582.11
2018-01-25T18:53:51.835Z,98592.16
2018-01-25T18:56:21.859Z,98587.25
2018-01-25T18:58:51.660Z,98583.54
2018-01-25T19:01:21.549Z,98593.36
2018-01-25T19:03:51.426Z,98590.33
2018-01-25T19:06:22.113Z,98594.50
2018-01-25T19:08:51.928Z,98602.53
2018-01-25T19:11:21.747Z,98598.21
2018-01-25T19:13:51.548Z,98596.79
2018-01-25T19:16:21.366Z,98587.56
2018-01-25T19:18:51.178Z,98578.97
2018-01-25T19:21:21.004Z,98571.50
2018-01-25T19:23:50.886Z,98564.94
2018-01-25T19:26:20.667Z,98571.49
2018-01-25T19:28:50.457Z,98569.94
2018-01-25T19:31:20.457Z,98570.86
2018-01-25T19:33:50.259Z,98564.02
2018-01-25T19:36:20.078Z,98568.23
2018-01-25T19:38:49.900Z,98569.97
2018-01-25T19:41:19.786Z,98565.44
2018-01-25T19:43:50.016Z,98561.25
2018-01-25T19:46:19.827Z,98563.38
2018-01-25T19:48:49.689Z,98567.08
2018-01-25T19:51:19.495Z,98564.62
2018-01-25T19:53:49.572Z,98563.28
2018-01-25T19:56:19.417Z,98570.45
2018-01-25T19:58:49.698Z,98573.33
2018-01-25T20:01:19.522Z,98570.25
2018-01-25T20:03:49.343Z,98572.12
2018-01-25T20:06:19.156Z,98578.03
2018-01-25T20:08:49.064Z,98581.89
2018-01-25T20:11:18.900Z,98578.22
2018-01-25T20:13:48.724Z,98575.14
2018-01-25T20:16:18.542Z,98570.04
2018-01-25T20:18:48.373Z,98565.03
2018-01-25T20:21:18.174Z,98572.61
2018-01-25T20:23:47.985Z,98570.77
2018-01-25T20:26:17.599Z,98569.13
2018-01-25T20:28:47.411Z,98568.11
2018-01-25T20:31:17.228Z,98570.58
2018-01-25T20:33:47.274Z,98575.58
2018-01-25T20:36:17.785Z,98570.98
2018-01-25T20:38:47.603Z,98569.75
2018-01-25T20:41:17.400Z,98565.75
2018-01-25T20:43:47.221Z,98561.44
2018-01-25T20:46:17.058Z,98567.41
2018-01-25T20:48:46.835Z,98567.40
2018-01-25T20:51:16.670Z,98573.03
2018-01-25T20:53:46.458Z,98583.87
2018-01-25T20:56:16.270Z,98575.17
2018-01-25T20:58:46.051Z,98575.48
2018-01-25T21:01:15.860Z,98583.77
2018-01-25T21:03:45.664Z,98577.42
2018-01-25T21:06:15.463Z,98582.23
2018-01-25T21:08:45.086Z,98587.06
2018-01-25T21:11:14.921Z,98584.92
2018-01-25T21:13:44.705Z,98584.70
2018-01-25T21:16:14.533Z,98583.69
2018-01-25T21:18:44.083Z,98573.35
2018-01-25T21:21:13.988Z,98575.16
2018-01-25T21:23:43.776Z,98585.22
2018-01-25T21:26:13.558Z,98583.98
2018-01-25T21:28:43.370Z,98577.64
2018-01-25T21:31:13.182Z,98584.39
2018-01-25T21:33:42.998Z,98595.88
2018-01-25T21:36:13.013Z,98601.61
2018-01-25T21:38:44.311Z,98599.95
2018-01-25T21:41:14.213Z,98602.53
2018-01-25T21:43:44.060Z,98601.51
2018-01-25T21:46:14.886Z,98607.75
2018-01-25T21:48:44.885Z,98596.59
2018-01-25T21:51:14.740Z,98599.27
2018-01-25T21:53:44.698Z,98599.73
2018-01-25T21:56:14.633Z,98597.80
2018-01-25T21:58:44.566Z,98596.66
2018-01-25T22:01:14.553Z,98605.70
2018-01-25T22:03:44.543Z,98603.73
2018-01-25T22:06:14.450Z,98603.12
2018-01-25T22:08:44.607Z,98595.74
2018-01-25T22:11:14.524Z,98600.05
2018-01-25T22:13:44.525Z,98612.35
2018-01-25T22:16:15.240Z,98607.13
2018-01-25T22:18:45.211Z,98608.86
2018-01-25T22:21:15.118Z,98610.61
2018-01-25T22:23:45.046Z,98610.38
2018-01-25T22:26:15.029Z,98619.19
2018-01-25T22:28:48.676Z,98621.16
2018-01-25T22:31:18.559Z,98623.51
2018-01-25T22:33:48.837Z,98633.84
2018-01-25T22:36:19.196Z,98632.73
2018-01-25T22:38:49.757Z,98631.59
2018-01-25T22:41:19.841Z,98629.02
2018-01-25T22:43:49.725Z,98628.33
2018-01-25T22:46:19.802Z,98628.64
2018-01-25T22:48:49.833Z,98626.77
2018-01-25T22:51:19.803Z,98630.53
2018-01-25T22:53:49.855Z,98630.06
2018-01-25T22:56:19.806Z,98630.86
2018-01-25T22:58:49.689Z,98622.68
2018-01-25T23:01:22.329Z,98634.16
2018-01-25T23:03:52.629Z,98627.59
2018-01-25T23:06:22.592Z,98634.06
2018-01-25T23:08:52.878Z,98630.07
2018-01-25T23:11:22.727Z,98638.47
2018-01-25T23:13:52.672Z,98644.39
2018-01-25T23:16:22.618Z,98649.31
2018-01-25T23:18:52.526Z,98651.47
2018-01-25T23:21:22.502Z,98646.46
2018-01-25T23:23:52.437Z,98643.98
2018-01-25T23:26:22.409Z,98650.55
2018-01-25T23:28:52.098Z,98651.47
2018-01-25T23:31:23.433Z,98651.95
2018-01-25T23:33:58.517Z,98653.25
2018-01-25T23:36:29.591Z,98656.97
2018-01-25T23:38:59.769Z,98641.81
2018-01-25T23:41:29.721Z,98639.02
2018-01-25T23:43:59.738Z,98636.50
2018-01-25T23:46:30.569Z,98637.19
2018-01-25T23:49:00.656Z,98633.78
2018-01-25T23:51:30.733Z,98631.72
2018-01-25T23:54:02.238Z,98634.61
2018-01-25T23:56:32.324Z,98628.45
2018-01-25T23:59:02.773Z,98624.38
